createdAt,value
2023-03-22T00:01:16.978Z,25.59
2023-03-22T00:05:16.882Z,25.59
2023-03-22T00:09:16.926Z,25.58
2023-03-22T00:13:17.142Z,25.57
2023-03-22T00:17:17.370Z,25.57
2023-03-22T00:21:17.451Z,25.56
2023-03-22T00:25:17.571Z,25.56
2023-03-22T00:29:17.779Z,25.55
2023-03-22T00:33:17.945Z,25.55
2023-03-22T00:37:18.050Z,25.54
2023-03-22T00:41:18.166Z,25.54
2023-03-22T00:45:18.291Z,25.53
2023-03-22T00:49:18.297Z,25.53
2023-03-22T00:53:18.429Z,25.52
2023-03-22T00:57:18.460Z,25.52
2023-03-22T01:01:18.617Z,25.52
2023-03-22T01:05:18.671Z,25.51
2023-03-22T01:09:18.764Z,25.50
2023-03-22T01:13:18.760Z,25.49
2023-03-22T01:17:18.804Z,25.48
2023-03-22T01:21:18.828Z,25.47
2023-03-22T01:25:18.768Z,25.47
2023-03-22T01:29:18.750Z,25.46
2023-03-22T01:33:18.793Z,25.46
2023-03-22T01:37:18.753Z,25.45
2023-03-22T01:41:18.709Z,25.44
2023-03-22T01:45:18.678Z,25.44
2023-03-22T01:49:18.828Z,25.43
2023-03-22T01:53:18.693Z,25.43
2023-03-22T01:57:18.649Z,25.43
2023-03-22T02:01:18.662Z,25.42
2023-03-22T02:05:18.620Z,25.42
2023-03-22T02:09:18.571Z,25.42
2023-03-22T02:13:18.544Z,25.40
2023-03-22T02:17:18.596Z,25.39
2023-03-22T02:21:18.507Z,25.39
2023-03-22T02:25:18.550Z,25.39
2023-03-22T02:29:18.506Z,25.37
2023-03-22T02:33:18.531Z,25.37
2023-03-22T02:37:18.509Z,25.37
2023-03-22T02:41:18.540Z,25.36
2023-03-22T02:45:18.521Z,25.37
2023-03-22T02:49:18.519Z,25.36
2023-03-22T02:53:18.504Z,25.35
2023-03-22T02:57:18.545Z,25.34
2023-03-22T03:01:18.593Z,25.34
2023-03-22T03:05:18.534Z,25.33
2023-03-22T03:09:18.550Z,25.33
2023-03-22T03:13:18.599Z,25.32
2023-03-22T03:17:18.570Z,25.30
2023-03-22T03:21:18.610Z,25.31
2023-03-22T03:25:18.663Z,25.30
2023-03-22T03:29:18.661Z,25.29
2023-03-22T03:33:18.682Z,25.29
2023-03-22T03:37:18.750Z,25.29
2023-03-22T03:41:18.766Z,25.29
2023-03-22T03:45:18.807Z,25.28
2023-03-22T03:49:18.904Z,25.27
2023-03-22T03:53:18.917Z,25.27
2023-03-22T03:57:18.972Z,25.28
2023-03-22T04:01:19.030Z,25.27
2023-03-22T04:05:19.045Z,25.26
2023-03-22T04:09:19.123Z,25.26
2023-03-22T04:13:19.174Z,25.25
2023-03-22T04:17:19.197Z,25.23
2023-03-22T04:21:19.258Z,25.22
2023-03-22T04:25:19.604Z,25.22
2023-03-22T04:29:19.436Z,25.21
2023-03-22T04:33:19.474Z,25.21
2023-03-22T04:37:19.538Z,25.21
2023-03-22T04:41:19.587Z,25.21
2023-03-22T04:45:19.661Z,25.20
2023-03-22T04:49:19.752Z,25.20
2023-03-22T04:53:19.809Z,25.18
2023-03-22T04:57:19.859Z,25.17
2023-03-22T05:01:20.045Z,25.17
2023-03-22T05:05:20.002Z,25.20
2023-03-22T05:09:22.847Z,25.23
2023-03-22T05:13:20.102Z,25.21
2023-03-22T05:17:20.134Z,25.19
2023-03-22T05:21:20.031Z,25.15
2023-03-22T05:25:19.972Z,25.14
2023-03-22T05:29:19.959Z,25.11
2023-03-22T05:33:19.933Z,25.09
2023-03-22T05:37:19.870Z,25.09
2023-03-22T05:41:19.834Z,25.10
2023-03-22T05:45:19.807Z,25.09
2023-03-22T05:49:19.789Z,25.09
2023-03-22T05:53:19.825Z,25.11
2023-03-22T05:57:19.911Z,25.12
2023-03-22T06:01:19.981Z,25.13
2023-03-22T06:05:20.126Z,25.15
2023-03-22T06:09:20.194Z,25.17
2023-03-22T06:13:20.284Z,25.18
2023-03-22T06:17:20.430Z,25.20
2023-03-22T06:21:20.508Z,25.20
2023-03-22T06:25:20.510Z,25.21
2023-03-22T06:29:20.498Z,25.21
2023-03-22T06:33:20.599Z,25.17
2023-03-22T06:37:20.750Z,25.03
2023-03-22T06:41:21.183Z,24.92
2023-03-22T06:45:20.723Z,24.97
2023-03-22T06:49:20.638Z,25.06
2023-03-22T06:53:20.603Z,25.18
2023-03-22T06:57:20.552Z,25.32
2023-03-22T07:01:22.261Z,25.46
2023-03-22T07:05:20.476Z,25.55
2023-03-22T07:09:20.429Z,25.63
2023-03-22T07:13:20.433Z,25.67
2023-03-22T07:17:20.351Z,25.72
2023-03-22T07:21:20.351Z,25.83
2023-03-22T07:25:20.281Z,25.86
2023-03-22T07:29:20.209Z,25.91
2023-03-22T07:33:20.694Z,25.97
2023-03-22T07:37:20.237Z,26.03
2023-03-22T07:41:20.218Z,26.00
2023-03-22T07:45:20.231Z,25.97
2023-03-22T07:49:20.125Z,25.98
2023-03-22T07:53:20.098Z,26.04
2023-03-22T07:57:20.162Z,26.08
2023-03-22T08:01:19.994Z,26.15
2023-03-22T08:05:19.979Z,26.20
2023-03-22T08:09:20.193Z,26.24
2023-03-22T08:13:19.931Z,26.30
2023-03-22T08:17:20.017Z,26.38
2023-03-22T08:21:20.130Z,26.44
2023-03-22T08:25:20.270Z,26.48
2023-03-22T08:29:22.350Z,26.51
2023-03-22T08:33:20.752Z,26.57
2023-03-22T08:37:20.490Z,26.58
2023-03-22T08:41:20.586Z,26.55
2023-03-22T08:45:20.608Z,26.56
2023-03-22T08:49:20.584Z,26.66
2023-03-22T08:53:20.557Z,26.72
2023-03-22T08:57:20.550Z,26.77
2023-03-22T09:01:20.875Z,26.85
2023-03-22T09:05:20.760Z,26.89
2023-03-22T09:09:20.769Z,26.98
2023-03-22T09:13:20.706Z,27.05
2023-03-22T09:17:22.402Z,27.14
2023-03-22T09:21:20.616Z,27.19
2023-03-22T09:25:20.575Z,27.18
2023-03-22T09:29:20.562Z,27.23
2023-03-22T09:33:20.617Z,26.75
2023-03-22T09:37:20.646Z,26.37
2023-03-22T09:41:20.833Z,26.08
2023-03-22T09:45:20.804Z,26.15
2023-03-22T09:49:20.777Z,26.45
2023-03-22T09:53:20.746Z,26.73
2023-03-22T09:57:20.702Z,26.90
2023-03-22T10:01:21.167Z,26.93
2023-03-22T10:05:20.750Z,26.98
2023-03-22T10:09:20.630Z,26.95
2023-03-22T10:13:20.547Z,26.88
2023-03-22T10:17:20.503Z,26.78
2023-03-22T10:21:20.497Z,26.59
2023-03-22T10:25:20.476Z,26.59
2023-03-22T10:29:20.401Z,26.70
2023-03-22T10:33:20.376Z,26.79
2023-03-22T10:37:20.404Z,26.48
2023-03-22T10:41:20.329Z,26.48
2023-03-22T10:45:20.362Z,26.69
2023-03-22T10:49:20.396Z,26.82
2023-03-22T10:53:20.365Z,26.89
2023-03-22T10:57:20.328Z,27.07
2023-03-22T11:01:20.471Z,27.18
2023-03-22T11:05:20.282Z,27.21
2023-03-22T11:09:20.261Z,27.25
2023-03-22T11:13:20.301Z,27.23
2023-03-22T11:17:20.138Z,27.30
2023-03-22T11:21:20.308Z,27.30
2023-03-22T11:25:20.136Z,27.30
2023-03-22T11:29:20.181Z,27.30
2023-03-22T11:33:20.019Z,27.11
2023-03-22T11:37:20.012Z,27.17
2023-03-22T11:41:20.136Z,27.26
2023-03-22T11:45:19.879Z,27.36
2023-03-22T11:49:19.840Z,27.39
2023-03-22T11:53:19.846Z,27.42
2023-03-22T11:57:19.836Z,27.39
2023-03-22T12:01:19.746Z,27.48
2023-03-22T12:05:19.798Z,27.56
2023-03-22T12:09:19.747Z,27.55
2023-03-22T12:13:19.727Z,27.57
2023-03-22T12:17:19.767Z,27.63
2023-03-22T12:21:19.716Z,27.62
2023-03-22T12:25:19.754Z,27.56
2023-03-22T12:29:19.879Z,27.47
2023-03-22T12:33:19.939Z,27.39
2023-03-22T12:37:20.029Z,27.30
2023-03-22T12:41:20.163Z,27.24
2023-03-22T12:45:20.312Z,27.22
2023-03-22T12:49:20.522Z,27.22
2023-03-22T12:53:20.760Z,27.17
2023-03-22T12:57:20.901Z,27.24
2023-03-22T13:01:21.111Z,27.35
2023-03-22T13:05:21.078Z,27.41
2023-03-22T13:09:21.133Z,27.46
2023-03-22T13:13:21.261Z,27.51
2023-03-22T13:17:21.175Z,27.57
2023-03-22T13:21:21.241Z,27.64
2023-03-22T13:25:21.181Z,27.70
2023-03-22T13:29:21.236Z,27.77
2023-03-22T13:33:21.326Z,27.82
2023-03-22T13:37:21.264Z,27.89
2023-03-22T13:41:21.366Z,27.96
2023-03-22T13:45:21.456Z,28.03
2023-03-22T13:49:21.452Z,28.08
2023-03-22T13:53:21.643Z,28.17
2023-03-22T13:57:21.517Z,28.21
2023-03-22T14:01:21.764Z,28.25
2023-03-22T14:05:21.965Z,28.33
2023-03-22T14:09:21.904Z,28.40
2023-03-22T14:13:21.883Z,28.49
2023-03-22T14:17:21.842Z,28.53
2023-03-22T14:21:21.820Z,28.57
2023-03-22T14:46:12.011Z,29.05
2023-03-22T14:50:11.903Z,29.11
2023-03-22T14:54:11.953Z,29.15
2023-03-22T14:58:11.852Z,29.19
2023-03-22T15:02:11.857Z,29.25
2023-03-22T15:06:11.791Z,29.34
2023-03-22T15:10:11.731Z,29.38
2023-03-22T15:14:11.756Z,29.44
2023-03-22T15:18:11.722Z,29.50
2023-03-22T15:22:11.905Z,29.51
2023-03-22T15:26:12.125Z,29.49
2023-03-22T15:30:12.274Z,29.46
2023-03-22T15:34:12.487Z,29.42
2023-03-22T15:38:12.459Z,29.42
2023-03-22T15:42:12.452Z,29.40
2023-03-22T15:46:12.485Z,29.43
2023-03-22T15:50:12.387Z,29.47
2023-03-22T15:54:12.318Z,29.46
2023-03-22T15:58:12.253Z,29.44
2023-03-22T16:02:12.259Z,29.41
2023-03-22T16:06:12.191Z,29.36
2023-03-22T16:10:12.197Z,29.30
2023-03-22T16:14:12.136Z,29.24
2023-03-22T16:18:12.095Z,29.16
2023-03-22T16:22:12.188Z,29.04
2023-03-22T16:26:12.297Z,28.99
2023-03-22T16:30:12.239Z,28.93
2023-03-22T16:34:12.246Z,28.86
2023-03-22T16:38:12.311Z,28.77
2023-03-22T16:42:12.361Z,28.71
2023-03-22T16:46:12.385Z,28.61
2023-03-22T16:50:12.465Z,28.54
2023-03-22T16:54:12.548Z,28.46
2023-03-22T16:58:12.690Z,28.36
2023-03-22T17:02:12.839Z,28.28
2023-03-22T17:06:12.993Z,28.19
2023-03-22T17:10:13.205Z,28.08
2023-03-22T17:14:13.168Z,28.00
2023-03-22T17:18:13.129Z,27.92
2023-03-22T17:22:13.124Z,27.86
2023-03-22T17:26:13.075Z,27.75
2023-03-22T17:30:12.998Z,27.68
2023-03-22T17:34:13.033Z,27.57
2023-03-22T17:38:14.066Z,27.50
2023-03-22T17:42:12.905Z,27.41
2023-03-22T17:46:57.299Z,27.32
2023-03-22T17:50:13.816Z,27.25
2023-03-22T17:54:48.906Z,27.18
2023-03-22T17:58:31.481Z,27.14
2023-03-22T18:02:16.231Z,27.08
2023-03-22T18:06:13.703Z,27.03
2023-03-22T18:10:12.643Z,26.97
2023-03-22T18:14:24.970Z,26.89
2023-03-22T18:18:13.550Z,26.84
2023-03-22T18:22:12.570Z,26.79
2023-03-22T18:26:27.408Z,26.75
2023-03-22T18:30:13.486Z,26.69
2023-03-22T18:34:12.434Z,26.62
2023-03-22T18:38:17.753Z,26.05
2023-03-22T18:42:20.561Z,25.75
2023-03-22T18:46:19.028Z,25.86
2023-03-22T18:50:13.311Z,26.07
2023-03-22T18:54:12.288Z,26.17
2023-03-22T18:58:12.235Z,26.24
2023-03-22T19:02:18.165Z,26.27
2023-03-22T19:06:13.146Z,26.28
2023-03-22T19:10:12.112Z,26.33
2023-03-22T19:14:54.821Z,26.27
2023-03-22T19:18:13.094Z,26.29
2023-03-22T19:22:11.997Z,26.29
2023-03-22T19:26:11.963Z,26.35
2023-03-22T19:30:12.042Z,26.37
2023-03-22T19:34:12.181Z,26.40
2023-03-22T19:38:12.219Z,26.41
2023-03-22T19:42:12.414Z,26.40
2023-03-22T19:46:12.438Z,26.39
2023-03-22T19:50:12.560Z,26.38
2023-03-22T19:58:13.634Z,26.34
2023-03-22T20:02:12.582Z,26.34
2023-03-22T20:06:12.512Z,26.33
2023-03-22T20:10:12.499Z,26.33
2023-03-22T20:14:12.565Z,26.31
2023-03-22T20:18:12.704Z,26.31
2023-03-22T20:22:12.779Z,26.31
2023-03-22T20:26:12.912Z,26.30
2023-03-22T20:30:13.045Z,26.30
2023-03-22T20:34:13.120Z,26.29
2023-03-22T20:38:13.238Z,26.28
2023-03-22T20:42:13.377Z,26.28
2023-03-22T20:46:13.498Z,26.27
2023-03-22T20:50:13.608Z,26.27
2023-03-22T20:54:13.779Z,26.26
2023-03-22T20:58:13.834Z,26.24
2023-03-22T21:02:13.972Z,26.24
2023-03-22T21:06:14.103Z,26.24
2023-03-22T21:10:14.223Z,26.24
2023-03-22T21:14:15.836Z,26.22
2023-03-22T21:18:14.550Z,26.22
2023-03-22T21:22:14.679Z,26.20
2023-03-22T21:26:14.808Z,26.20
2023-03-22T21:30:14.933Z,26.18
2023-03-22T21:34:15.054Z,26.18
2023-03-22T21:38:15.213Z,26.18
2023-03-22T21:42:15.376Z,26.17
2023-03-22T21:46:15.506Z,26.16
2023-03-22T21:50:15.683Z,26.16
2023-03-22T21:54:15.780Z,26.16
2023-03-22T21:58:15.984Z,26.15
2023-03-22T22:02:16.149Z,26.14
2023-03-22T22:06:16.352Z,26.13
2023-03-22T22:10:16.496Z,26.13
2023-03-22T22:14:16.648Z,26.11
2023-03-22T22:18:16.849Z,26.10
2023-03-22T22:22:17.319Z,26.09
2023-03-22T22:26:17.311Z,26.10
2023-03-22T22:30:17.446Z,26.10
2023-03-22T22:34:17.628Z,26.09
2023-03-22T22:38:17.861Z,26.07
2023-03-22T22:42:18.052Z,26.07
2023-03-22T22:46:18.262Z,26.07
2023-03-22T22:50:18.495Z,26.07
2023-03-22T22:54:18.736Z,26.06
2023-03-22T22:58:18.895Z,26.06
2023-03-22T23:02:19.103Z,26.05
2023-03-22T23:06:19.311Z,26.05
2023-03-22T23:10:19.475Z,26.03
2023-03-22T23:14:19.718Z,26.03
2023-03-22T23:18:19.962Z,26.02
2023-03-22T23:22:20.153Z,26.01
2023-03-22T23:26:20.147Z,26.00
2023-03-22T23:30:20.103Z,25.99
2023-03-22T23:34:20.036Z,25.98
2023-03-22T23:38:20.054Z,25.99
2023-03-22T23:42:19.972Z,25.99
2023-03-22T23:46:19.949Z,25.97
2023-03-22T23:50:19.934Z,25.97
2023-03-22T23:54:19.903Z,25.96
2023-03-22T23:58:19.884Z,25.94
